createdAt,value
2024-04-30T00:01:01.195Z,7.98
2024-04-30T00:03:41.386Z,7.95
2024-04-30T00:06:10.102Z,7.93
2024-04-30T00:08:38.414Z,7.93
2024-04-30T00:11:06.480Z,7.94
2024-04-30T00:13:34.410Z,7.91
2024-04-30T00:16:03.551Z,7.88
2024-04-30T00:18:31.127Z,7.92
2024-04-30T00:20:59.232Z,7.92
2024-04-30T00:23:26.751Z,7.92
2024-04-30T00:25:54.290Z,7.95
2024-04-30T00:28:21.844Z,7.94
2024-04-30T00:30:49.454Z,7.93
2024-04-30T00:33:17.092Z,7.89
2024-04-30T00:35:44.729Z,7.86
2024-04-30T00:38:12.302Z,7.82
2024-04-30T00:40:39.945Z,7.75
2024-04-30T00:43:07.574Z,7.69
2024-04-30T00:45:35.251Z,7.63
2024-04-30T00:48:05.546Z,7.60
2024-04-30T00:50:34.157Z,7.57
2024-04-30T00:53:02.944Z,7.58
2024-04-30T00:55:30.809Z,7.55
2024-04-30T00:57:58.740Z,7.55
2024-04-30T01:00:26.286Z,7.52
2024-04-30T01:02:53.861Z,7.46
2024-04-30T01:05:21.477Z,7.44
2024-04-30T01:07:49.107Z,7.42
2024-04-30T01:10:17.640Z,7.39
2024-04-30T01:12:45.359Z,7.38
2024-04-30T01:15:13.803Z,7.39
2024-04-30T01:17:41.370Z,7.38
2024-04-30T01:20:11.022Z,7.35
2024-04-30T01:22:42.987Z,7.33
2024-04-30T01:25:10.680Z,7.28
2024-04-30T01:27:38.317Z,7.24
2024-04-30T01:30:07.604Z,7.26
2024-04-30T01:32:35.393Z,7.23
2024-04-30T01:35:03.167Z,7.24
2024-04-30T01:37:30.942Z,7.23
2024-04-30T01:39:58.741Z,7.22
2024-04-30T01:42:26.293Z,7.17
2024-04-30T01:44:53.833Z,7.14
2024-04-30T01:47:21.681Z,7.11
2024-04-30T01:49:49.258Z,7.07
2024-04-30T01:52:16.825Z,7.08
2024-04-30T01:54:44.598Z,7.07
2024-04-30T01:57:12.250Z,7.08
2024-04-30T01:59:44.160Z,7.05
2024-04-30T02:02:12.038Z,7.07
2024-04-30T02:04:46.443Z,7.05
2024-04-30T02:07:17.297Z,7.02
2024-04-30T02:09:45.054Z,6.98
2024-04-30T02:12:12.690Z,6.99
2024-04-30T02:14:40.491Z,6.99
2024-04-30T02:17:08.302Z,6.94
2024-04-30T02:19:35.974Z,6.95
2024-04-30T02:22:03.841Z,6.96
2024-04-30T02:24:31.422Z,6.93
2024-04-30T02:26:58.956Z,6.91
2024-04-30T02:29:26.773Z,6.87
2024-04-30T02:32:13.296Z,6.86
2024-04-30T02:34:40.871Z,6.89
2024-04-30T02:37:08.468Z,6.98
2024-04-30T02:39:36.150Z,6.97
2024-04-30T02:42:03.980Z,6.98
2024-04-30T02:44:34.398Z,7.00
2024-04-30T02:47:02.695Z,6.95
2024-04-30T02:49:30.500Z,6.89
2024-04-30T02:51:58.216Z,6.88
2024-04-30T02:54:25.741Z,6.88
2024-04-30T02:56:53.269Z,6.92
2024-04-30T02:59:20.794Z,6.97
2024-04-30T03:01:48.408Z,7.02
2024-04-30T03:04:16.133Z,7.01
2024-04-30T03:06:43.808Z,6.98
2024-04-30T03:09:11.357Z,6.95
2024-04-30T03:11:46.047Z,6.92
2024-04-30T03:14:13.801Z,6.91
2024-04-30T03:16:44.953Z,6.89
2024-04-30T03:19:12.568Z,6.91
2024-04-30T03:21:40.221Z,6.94
2024-04-30T03:24:08.196Z,6.89
2024-04-30T03:26:43.246Z,6.89
2024-04-30T03:29:10.859Z,6.84
2024-04-30T03:31:38.441Z,6.76
2024-04-30T03:34:06.238Z,6.71
2024-04-30T03:36:33.833Z,6.67
2024-04-30T03:39:01.603Z,6.69
2024-04-30T03:41:29.224Z,6.72
2024-04-30T03:43:56.745Z,6.72
2024-04-30T03:46:24.442Z,6.73
2024-04-30T03:48:52.002Z,6.71
2024-04-30T03:51:19.820Z,6.67
2024-04-30T03:53:47.979Z,6.65
2024-04-30T03:56:15.734Z,6.65
2024-04-30T03:58:43.313Z,6.64
2024-04-30T04:01:11.041Z,6.62
2024-04-30T04:03:38.758Z,6.58
2024-04-30T04:06:06.474Z,6.57
2024-04-30T04:08:34.000Z,6.58
2024-04-30T04:11:20.114Z,6.55
2024-04-30T04:14:06.386Z,6.54
2024-04-30T04:16:34.105Z,6.51
2024-04-30T04:19:01.832Z,6.48
2024-04-30T04:21:29.472Z,6.48
2024-04-30T04:23:57.022Z,6.46
2024-04-30T04:26:24.599Z,6.46
2024-04-30T04:28:52.183Z,6.45
2024-04-30T04:31:19.761Z,6.45
2024-04-30T04:33:47.316Z,6.44
2024-04-30T04:36:16.143Z,6.43
2024-04-30T04:38:43.923Z,6.40
2024-04-30T04:41:11.516Z,6.38
2024-04-30T04:43:39.109Z,6.40
2024-04-30T04:46:06.881Z,6.43
2024-04-30T04:48:34.577Z,6.45
2024-04-30T04:51:02.238Z,6.47
2024-04-30T04:53:29.758Z,6.53
2024-04-30T04:55:57.979Z,6.53
2024-04-30T04:58:25.645Z,6.58
2024-04-30T05:00:53.262Z,6.61
2024-04-30T05:03:20.874Z,6.65
2024-04-30T05:05:48.451Z,6.67
2024-04-30T05:08:16.008Z,6.70
2024-04-30T05:10:43.749Z,6.71
2024-04-30T05:13:11.396Z,6.76
2024-04-30T05:15:39.057Z,6.78
2024-04-30T05:18:06.734Z,6.81
2024-04-30T05:20:34.273Z,6.85
2024-04-30T05:23:02.011Z,6.90
2024-04-30T05:25:29.759Z,6.96
2024-04-30T05:27:57.403Z,7.01
2024-04-30T05:30:25.364Z,7.03
2024-04-30T05:32:52.991Z,7.09
2024-04-30T05:35:20.649Z,7.19
2024-04-30T05:37:48.430Z,7.30
2024-04-30T05:40:16.004Z,7.39
2024-04-30T05:42:43.568Z,7.49
2024-04-30T05:45:12.837Z,7.56
2024-04-30T05:47:40.649Z,7.64
2024-04-30T05:50:08.230Z,7.74
2024-04-30T05:52:35.850Z,7.81
2024-04-30T05:55:03.667Z,7.90
2024-04-30T05:57:31.319Z,8.02
2024-04-30T05:59:58.834Z,8.11
2024-04-30T06:02:26.400Z,8.20
2024-04-30T06:04:54.042Z,8.32
2024-04-30T06:07:21.755Z,8.47
2024-04-30T06:09:49.644Z,8.60
2024-04-30T06:12:17.263Z,8.73
2024-04-30T06:14:45.002Z,8.84
2024-04-30T06:17:12.674Z,8.97
2024-04-30T06:19:40.331Z,9.06
2024-04-30T06:22:08.145Z,9.21
2024-04-30T06:24:35.844Z,9.32
2024-04-30T06:27:03.849Z,9.45
2024-04-30T06:29:31.406Z,9.57
2024-04-30T06:31:58.996Z,9.72
2024-04-30T06:34:26.701Z,9.85
2024-04-30T06:36:54.256Z,9.95
2024-04-30T06:39:22.896Z,10.05
2024-04-30T06:41:50.534Z,10.16
2024-04-30T06:44:18.088Z,10.32
2024-04-30T06:46:45.676Z,10.48
2024-04-30T06:49:13.350Z,10.65
2024-04-30T06:51:41.435Z,10.77
2024-04-30T06:54:09.074Z,10.90
2024-04-30T06:56:36.706Z,11.00
2024-04-30T06:59:04.270Z,11.08
2024-04-30T07:01:31.878Z,11.19
2024-04-30T07:03:59.484Z,11.39
2024-04-30T07:06:27.163Z,11.55
2024-04-30T07:08:54.690Z,11.62
2024-04-30T07:11:22.339Z,11.78
2024-04-30T07:13:50.015Z,12.04
2024-04-30T07:16:17.647Z,12.17
2024-04-30T07:18:46.342Z,12.23
2024-04-30T07:21:13.955Z,12.29
2024-04-30T07:23:41.554Z,12.35
2024-04-30T07:26:09.070Z,12.39
2024-04-30T07:28:36.840Z,12.49
2024-04-30T07:31:04.620Z,12.52
2024-04-30T07:33:32.228Z,12.51
2024-04-30T07:35:59.785Z,12.60
2024-04-30T07:38:27.386Z,12.69
2024-04-30T07:40:55.497Z,12.74
2024-04-30T07:43:23.087Z,12.78
2024-04-30T07:45:50.649Z,12.83
2024-04-30T07:48:18.295Z,12.89
2024-04-30T07:50:45.963Z,12.97
2024-04-30T07:53:13.510Z,13.05
2024-04-30T07:55:41.320Z,13.12
2024-04-30T07:58:08.990Z,13.18
2024-04-30T08:00:36.618Z,13.22
2024-04-30T08:03:04.629Z,13.27
2024-04-30T08:05:41.975Z,13.37
2024-04-30T08:08:13.448Z,13.55
2024-04-30T08:10:41.752Z,13.73
2024-04-30T08:13:09.435Z,13.86
2024-04-30T08:15:37.078Z,14.03
2024-04-30T08:18:05.148Z,14.19
2024-04-30T08:20:32.885Z,14.35
2024-04-30T08:23:00.470Z,14.52
2024-04-30T08:25:28.025Z,14.74
2024-04-30T08:27:55.521Z,14.86
2024-04-30T08:30:23.116Z,15.03
2024-04-30T08:32:51.226Z,15.16
2024-04-30T08:35:18.873Z,15.26
2024-04-30T08:37:54.042Z,15.44
2024-04-30T08:40:26.049Z,15.59
2024-04-30T08:42:53.808Z,15.70
2024-04-30T08:45:26.449Z,15.83
2024-04-30T08:47:58.368Z,15.96
2024-04-30T08:50:28.120Z,16.15
2024-04-30T08:52:57.318Z,16.36
2024-04-30T08:55:26.339Z,16.51
2024-04-30T08:57:54.030Z,16.75
2024-04-30T09:00:21.558Z,17.00
2024-04-30T09:02:53.879Z,17.14
2024-04-30T09:05:23.060Z,17.18
2024-04-30T09:07:50.789Z,17.20
2024-04-30T09:10:18.391Z,17.31
2024-04-30T09:12:45.960Z,17.44
2024-04-30T09:15:18.189Z,17.55
2024-04-30T09:17:45.872Z,17.62
2024-04-30T09:20:13.623Z,17.69
2024-04-30T09:22:46.951Z,17.80
2024-04-30T09:25:16.175Z,17.75
2024-04-30T09:27:44.956Z,17.75
2024-04-30T09:30:21.742Z,17.79
2024-04-30T09:32:49.978Z,17.81
2024-04-30T09:35:28.395Z,17.84
2024-04-30T09:38:01.406Z,17.92
2024-04-30T09:40:32.355Z,18.02
2024-04-30T09:43:01.306Z,18.14
2024-04-30T09:45:31.951Z,18.16
2024-04-30T09:48:08.833Z,18.22
2024-04-30T09:50:38.457Z,18.32
2024-04-30T09:53:07.789Z,18.37
2024-04-30T09:55:38.053Z,18.35
2024-04-30T09:58:07.135Z,18.38
2024-04-30T10:00:34.947Z,18.40
2024-04-30T10:03:09.976Z,18.41
2024-04-30T10:05:45.067Z,18.53
2024-04-30T10:08:15.543Z,18.67
2024-04-30T10:10:43.300Z,18.71
2024-04-30T10:13:23.556Z,18.68
2024-04-30T10:15:51.290Z,18.73
2024-04-30T10:18:23.629Z,18.69
2024-04-30T10:20:51.523Z,18.67
2024-04-30T10:23:32.823Z,18.70
2024-04-30T10:26:07.422Z,18.83
2024-04-30T10:28:37.489Z,18.90
2024-04-30T10:31:13.098Z,18.88
2024-04-30T10:33:41.068Z,18.95
2024-04-30T10:36:11.000Z,18.98
2024-04-30T10:38:42.324Z,19.04
2024-04-30T10:41:10.813Z,19.11
2024-04-30T10:43:38.445Z,19.26
2024-04-30T10:46:32.277Z,19.45
2024-04-30T10:48:59.856Z,19.51
2024-04-30T10:51:27.514Z,19.52
2024-04-30T10:53:58.163Z,19.50
2024-04-30T10:56:25.949Z,19.48
2024-04-30T10:58:58.791Z,19.47
2024-04-30T11:01:30.179Z,19.38
2024-04-30T11:04:18.137Z,19.36
2024-04-30T11:06:48.092Z,19.33
2024-04-30T11:09:16.338Z,19.35
2024-04-30T11:11:49.825Z,19.31
2024-04-30T11:14:19.143Z,19.39
2024-04-30T11:16:47.924Z,19.48
2024-04-30T11:19:16.019Z,19.58
2024-04-30T11:21:44.470Z,19.59
2024-04-30T11:24:12.028Z,19.59
2024-04-30T11:26:39.701Z,19.72
2024-04-30T11:31:37.922Z,19.83
2024-04-30T11:34:06.030Z,19.75
2024-04-30T11:36:33.799Z,19.74
2024-04-30T11:39:01.369Z,19.86
2024-04-30T11:41:28.974Z,20.04
2024-04-30T11:43:58.366Z,20.17
2024-04-30T11:46:25.999Z,20.14
2024-04-30T11:48:53.805Z,20.16
2024-04-30T11:51:21.617Z,20.29
2024-04-30T11:53:49.394Z,20.48
2024-04-30T11:56:16.994Z,20.63
2024-04-30T11:58:44.713Z,20.77
2024-04-30T12:01:12.538Z,20.90
2024-04-30T12:03:40.079Z,20.79
2024-04-30T12:06:07.637Z,20.68
2024-04-30T12:08:38.092Z,20.74
2024-04-30T12:11:05.723Z,20.84
2024-04-30T12:13:35.848Z,20.81
2024-04-30T12:16:04.154Z,20.88
2024-04-30T12:18:32.084Z,20.93
2024-04-30T12:20:59.727Z,20.94
2024-04-30T12:23:27.374Z,20.86
2024-04-30T12:25:55.800Z,20.88
2024-04-30T12:28:23.367Z,20.94
2024-04-30T12:30:51.129Z,21.04
2024-04-30T12:33:20.441Z,21.03
2024-04-30T12:35:49.101Z,21.01
2024-04-30T12:38:16.969Z,21.11
2024-04-30T12:40:45.630Z,21.06
2024-04-30T12:43:13.626Z,21.18
2024-04-30T12:45:41.835Z,21.18
2024-04-30T12:48:09.630Z,21.20
2024-04-30T12:50:37.256Z,21.32
2024-04-30T12:53:04.852Z,21.19
2024-04-30T12:55:35.042Z,21.08
2024-04-30T12:58:03.200Z,20.97
2024-04-30T13:00:30.747Z,21.00
2024-04-30T13:02:58.457Z,21.14
2024-04-30T13:05:27.014Z,21.28
2024-04-30T13:07:54.687Z,21.21
2024-04-30T13:10:22.401Z,20.99
2024-04-30T13:12:49.955Z,20.74
2024-04-30T13:15:17.625Z,20.78
2024-04-30T13:17:45.267Z,21.05
2024-04-30T13:20:13.050Z,21.06
2024-04-30T13:22:40.654Z,21.04
2024-04-30T13:25:08.338Z,21.21
2024-04-30T13:27:35.885Z,21.39
2024-04-30T13:30:03.888Z,21.44
2024-04-30T13:32:31.457Z,21.49
2024-04-30T13:34:59.021Z,21.56
2024-04-30T13:37:26.586Z,21.64
2024-04-30T13:39:54.201Z,21.68
2024-04-30T13:42:21.886Z,21.69
2024-04-30T13:44:50.033Z,21.50
2024-04-30T13:47:17.932Z,21.48
2024-04-30T13:49:47.380Z,21.69
2024-04-30T13:52:15.054Z,21.92
2024-04-30T13:54:42.656Z,21.92
2024-04-30T13:57:10.209Z,22.01
2024-04-30T13:59:37.819Z,22.23
2024-04-30T14:02:08.411Z,22.38
2024-04-30T14:04:36.379Z,22.12
2024-04-30T14:07:04.250Z,21.68
2024-04-30T14:09:33.818Z,21.53
2024-04-30T14:12:02.949Z,21.72
2024-04-30T14:14:30.815Z,21.81
2024-04-30T14:16:58.380Z,21.82
2024-04-30T14:19:26.144Z,21.78
2024-04-30T14:21:53.749Z,21.88
2024-04-30T14:24:21.425Z,21.88
2024-04-30T14:26:50.506Z,21.86
2024-04-30T14:29:19.506Z,21.81
2024-04-30T14:31:47.104Z,21.67
2024-04-30T14:34:14.820Z,21.53
2024-04-30T14:36:44.966Z,21.73
2024-04-30T14:39:12.951Z,21.92
2024-04-30T14:41:42.556Z,21.88
2024-04-30T14:44:13.939Z,21.86
2024-04-30T14:46:41.946Z,21.87
2024-04-30T14:49:09.813Z,22.04
2024-04-30T14:51:40.437Z,22.20
2024-04-30T14:54:08.615Z,22.11
2024-04-30T14:56:37.521Z,22.18
2024-04-30T14:59:05.210Z,22.07
2024-04-30T15:01:33.001Z,22.05
2024-04-30T15:04:00.795Z,22.09
2024-04-30T15:06:29.230Z,21.97
2024-04-30T15:08:56.948Z,21.80
2024-04-30T15:11:25.339Z,21.75
2024-04-30T15:13:53.592Z,21.75
2024-04-30T15:16:21.418Z,21.82
2024-04-30T15:18:49.448Z,21.78
2024-04-30T15:21:17.038Z,21.72
2024-04-30T15:23:45.487Z,21.75
2024-04-30T15:26:15.166Z,21.74
2024-04-30T15:28:43.216Z,21.62
2024-04-30T15:31:21.512Z,21.42
2024-04-30T15:33:49.832Z,21.29
2024-04-30T15:36:17.417Z,21.17
2024-04-30T15:38:46.193Z,21.13
2024-04-30T15:41:23.346Z,21.14
2024-04-30T15:43:51.433Z,21.03
2024-04-30T15:46:19.308Z,20.91
2024-04-30T15:48:50.232Z,20.67
2024-04-30T15:51:19.317Z,20.42
2024-04-30T15:53:46.951Z,20.17
2024-04-30T15:56:17.579Z,19.96
2024-04-30T15:58:47.651Z,19.81
2024-04-30T16:01:15.775Z,19.73
2024-04-30T16:03:44.313Z,19.71
2024-04-30T16:06:12.212Z,19.68
2024-04-30T16:08:39.775Z,19.62
2024-04-30T16:11:10.434Z,19.61
2024-04-30T16:13:40.132Z,19.68
2024-04-30T16:16:15.435Z,19.72
2024-04-30T16:18:47.694Z,19.90
2024-04-30T16:21:16.656Z,19.98
2024-04-30T16:23:44.500Z,20.04
2024-04-30T16:26:12.264Z,19.99
2024-04-30T16:28:43.905Z,19.87
2024-04-30T16:31:14.707Z,19.77
2024-04-30T16:33:42.903Z,19.74
2024-04-30T16:36:20.647Z,19.71
2024-04-30T16:38:49.812Z,19.65
2024-04-30T16:41:17.921Z,19.57
2024-04-30T16:43:45.505Z,19.54
2024-04-30T16:46:13.144Z,19.59
2024-04-30T16:48:41.167Z,19.69
2024-04-30T16:51:14.818Z,19.85
2024-04-30T16:53:43.148Z,19.93
2024-04-30T16:56:11.024Z,19.88
2024-04-30T16:58:38.783Z,19.87
2024-04-30T17:01:06.896Z,20.10
2024-04-30T17:03:34.964Z,20.09
2024-04-30T17:06:11.243Z,20.06
2024-04-30T17:08:40.012Z,19.91
2024-04-30T17:11:11.871Z,19.73
2024-04-30T17:13:44.216Z,19.73
2024-04-30T17:16:23.511Z,19.81
2024-04-30T17:18:51.586Z,19.79
2024-04-30T17:21:22.351Z,19.69
2024-04-30T17:23:50.250Z,19.65
2024-04-30T17:26:25.364Z,19.66
2024-04-30T17:28:54.970Z,19.72
2024-04-30T17:31:23.952Z,19.79
2024-04-30T17:33:55.786Z,19.73
2024-04-30T17:36:23.671Z,19.66
2024-04-30T17:38:51.391Z,19.52
2024-04-30T17:41:23.787Z,19.43
2024-04-30T17:43:51.716Z,19.24
2024-04-30T17:46:19.829Z,19.09
2024-04-30T17:48:48.462Z,18.97
2024-04-30T17:51:16.653Z,18.83
2024-04-30T17:53:44.223Z,18.70
2024-04-30T17:56:11.880Z,18.57
2024-04-30T17:58:40.166Z,18.53
2024-04-30T18:01:07.846Z,18.49
2024-04-30T18:03:35.788Z,18.47
2024-04-30T18:06:03.571Z,18.43
2024-04-30T18:08:31.148Z,18.34
2024-04-30T18:10:58.800Z,18.18
2024-04-30T18:13:26.338Z,18.00
2024-04-30T18:15:54.208Z,17.87
2024-04-30T18:18:22.698Z,17.74
2024-04-30T18:20:50.329Z,17.59
2024-04-30T18:23:17.954Z,17.49
2024-04-30T18:25:45.482Z,17.41
2024-04-30T18:28:13.167Z,17.33
2024-04-30T18:30:40.703Z,17.30
2024-04-30T18:33:08.326Z,17.25
2024-04-30T18:35:35.939Z,17.20
2024-04-30T18:38:03.581Z,17.18
2024-04-30T18:40:31.117Z,17.12
2024-04-30T18:42:58.797Z,17.04
2024-04-30T18:45:26.374Z,16.90
2024-04-30T18:47:54.031Z,16.81
2024-04-30T18:50:21.641Z,16.70
2024-04-30T18:52:49.529Z,16.61
2024-04-30T18:55:17.119Z,16.56
2024-04-30T18:57:45.229Z,16.56
2024-04-30T19:00:13.182Z,16.50
2024-04-30T19:02:41.336Z,16.42
2024-04-30T19:05:08.940Z,16.35
2024-04-30T19:07:36.573Z,16.27
2024-04-30T19:10:04.591Z,16.14
2024-04-30T19:12:32.297Z,16.01
2024-04-30T19:14:59.854Z,15.88
2024-04-30T19:17:27.437Z,15.75
2024-04-30T19:19:55.007Z,15.61
2024-04-30T19:22:22.568Z,15.48
2024-04-30T19:24:50.253Z,15.37
2024-04-30T19:27:19.941Z,15.28
2024-04-30T19:29:47.551Z,15.17
2024-04-30T19:32:16.018Z,15.02
2024-04-30T19:34:43.808Z,14.90
2024-04-30T19:37:11.389Z,14.79
2024-04-30T19:39:38.984Z,14.71
2024-04-30T19:42:06.812Z,14.61
2024-04-30T19:44:39.148Z,14.47
2024-04-30T19:47:07.517Z,14.37
2024-04-30T19:49:35.219Z,14.26
2024-04-30T19:52:03.372Z,14.15
2024-04-30T19:54:31.061Z,14.06
2024-04-30T19:56:59.181Z,13.97
2024-04-30T19:59:26.800Z,13.90
2024-04-30T20:01:54.400Z,13.84
2024-04-30T20:04:21.971Z,13.77
2024-04-30T20:06:49.730Z,13.71
2024-04-30T20:09:19.517Z,13.65
2024-04-30T20:11:47.319Z,13.59
2024-04-30T20:14:15.156Z,13.53
2024-04-30T20:16:46.120Z,13.48
2024-04-30T20:19:13.902Z,13.42
2024-04-30T20:21:41.556Z,13.34
2024-04-30T20:24:09.627Z,13.27
2024-04-30T20:26:37.524Z,13.20
2024-04-30T20:29:07.882Z,13.13
2024-04-30T20:31:36.402Z,13.04
2024-04-30T20:34:05.609Z,12.97
2024-04-30T20:36:33.178Z,12.95
2024-04-30T20:39:01.130Z,12.87
2024-04-30T20:41:28.755Z,12.80
2024-04-30T20:43:56.542Z,12.77
2024-04-30T20:46:24.105Z,12.76
2024-04-30T20:48:51.786Z,12.72
2024-04-30T20:51:19.701Z,12.72
2024-04-30T20:53:47.282Z,12.71
2024-04-30T20:56:14.877Z,12.71
2024-04-30T20:58:42.438Z,12.69
2024-04-30T21:01:17.111Z,12.66
2024-04-30T21:03:44.949Z,12.62
2024-04-30T21:06:12.629Z,12.56
2024-04-30T21:08:40.285Z,12.52
2024-04-30T21:11:14.059Z,12.50
2024-04-30T21:13:42.301Z,12.52
2024-04-30T21:16:09.888Z,12.50
2024-04-30T21:18:37.823Z,12.45
2024-04-30T21:21:06.073Z,12.43
2024-04-30T21:23:33.610Z,12.42
2024-04-30T21:26:01.204Z,12.38
2024-04-30T21:28:30.073Z,12.34
2024-04-30T21:30:57.698Z,12.30
2024-04-30T21:33:25.398Z,12.29
2024-04-30T21:35:53.554Z,12.26
2024-04-30T21:38:21.164Z,12.22
2024-04-30T21:40:48.738Z,12.15
2024-04-30T21:43:16.315Z,12.13
2024-04-30T21:45:43.921Z,12.09
2024-04-30T21:48:11.720Z,12.02
2024-04-30T21:50:39.311Z,11.97
2024-04-30T21:53:06.888Z,11.98
2024-04-30T21:55:34.439Z,12.01
2024-04-30T21:58:02.053Z,12.07
2024-04-30T22:00:29.656Z,12.09
2024-04-30T22:03:02.599Z,12.06
2024-04-30T22:05:31.270Z,12.02
2024-04-30T22:07:58.931Z,11.98
2024-04-30T22:10:26.481Z,11.93
2024-04-30T22:12:54.155Z,11.93
2024-04-30T22:15:21.874Z,11.91
2024-04-30T22:17:50.159Z,11.82
2024-04-30T22:20:18.036Z,11.75
2024-04-30T22:22:45.573Z,11.73
2024-04-30T22:25:13.274Z,11.76
2024-04-30T22:27:40.859Z,11.81
2024-04-30T22:30:17.317Z,11.78
2024-04-30T22:32:49.169Z,11.71
2024-04-30T22:35:16.937Z,11.63
2024-04-30T22:37:44.470Z,11.58
2024-04-30T22:40:12.108Z,11.57
2024-04-30T22:42:39.755Z,11.62
2024-04-30T22:45:07.559Z,11.65
2024-04-30T22:47:35.358Z,11.63
2024-04-30T22:50:03.297Z,11.60
2024-04-30T22:52:30.916Z,11.56
2024-04-30T22:54:58.844Z,11.51
2024-04-30T22:57:26.570Z,11.47
2024-04-30T22:59:54.168Z,11.46
2024-04-30T23:02:22.430Z,11.40
2024-04-30T23:04:50.384Z,11.40
2024-04-30T23:07:17.984Z,11.42
2024-04-30T23:09:45.588Z,11.40
2024-04-30T23:12:13.214Z,11.35
2024-04-30T23:14:40.779Z,11.31
2024-04-30T23:17:08.359Z,11.29
2024-04-30T23:19:35.934Z,11.29
2024-04-30T23:22:03.777Z,11.28
2024-04-30T23:24:31.538Z,11.27
2024-04-30T23:26:59.170Z,11.26
2024-04-30T23:29:28.102Z,11.24
2024-04-30T23:31:56.195Z,11.24
2024-04-30T23:34:23.939Z,11.24
2024-04-30T23:36:53.728Z,11.18
2024-04-30T23:39:21.554Z,11.11
2024-04-30T23:41:49.347Z,11.04
2024-04-30T23:44:16.897Z,11.01
2024-04-30T23:46:44.470Z,10.98
2024-04-30T23:49:12.124Z,10.93
2024-04-30T23:51:39.733Z,10.90
2024-04-30T23:54:07.321Z,10.92
2024-04-30T23:56:34.863Z,10.97
2024-04-30T23:59:02.415Z,11.03
